Time;durP1;ratioP1;P1;durP2;ratioP2;P2;SDS_P1;SDS_P2;PMS_P1;PMS_P2;Temp;Humidity;BMP_temperature;BMP_pressure;BME280_temperature;BME280_humidity;BME280_pressure;Samples;Min_cycle;Max_cycle;Signal;HPM_P1;HPM_P2
2022/03/20 00:00:32;;;;;;;;;;;9.20;44.50;;;;;;5062845;28;19925;-78
2022/03/20 00:03:02;;;;;;;;;;;9.20;44.80;;;;;;5070159;28;19929;-78
2022/03/20 00:05:34;;;;;;;;;;;9.20;44.20;;;;;;5070567;28;19947;-76
2022/03/20 00:08:01;;;;;;;;;;;9.20;44.30;;;;;;5062995;28;19925;-77
2022/03/20 00:10:28;;;;;;;;;;;9.10;44.50;;;;;;5059146;28;20050;-78
2022/03/20 00:12:55;;;;;;;;;;;9.10;45.00;;;;;;5070560;28;19928;-78
2022/03/20 00:15:21;;;;;;;;;;;9.00;45.00;;;;;;5071860;28;19928;-78
2022/03/20 00:17:49;;;;;;;;;;;9.00;45.20;;;;;;5072837;28;19928;-78
2022/03/20 00:20:16;;;;;;;;;;;8.90;45.10;;;;;;5079444;28;19972;-78
2022/03/20 00:22:43;;;;;;;;;;;8.90;45.10;;;;;;5074064;28;19925;-77
2022/03/20 00:25:11;;;;;;;;;;;8.80;45.30;;;;;;5072406;28;19960;-78
2022/03/20 00:27:39;;;;;;;;;;;8.80;45.30;;;;;;5077736;28;19924;-79
2022/03/20 00:30:06;;;;;;;;;;;8.70;45.40;;;;;;5074788;28;20308;-78
2022/03/20 00:32:33;;;;;;;;;;;8.70;44.10;;;;;;5078154;28;20376;-79
2022/03/20 00:35:00;;;;;;;;;;;8.70;43.60;;;;;;5069472;28;19950;-78
2022/03/20 00:37:28;;;;;;;;;;;8.70;43.80;;;;;;5074041;28;19928;-78
2022/03/20 00:39:54;;;;;;;;;;;8.70;44.20;;;;;;5066414;28;19929;-78
2022/03/20 00:42:21;;;;;;;;;;;8.60;44.70;;;;;;5066843;28;19929;-79
2022/03/20 00:44:48;;;;;;;;;;;8.50;44.10;;;;;;5059188;28;20373;-78
2022/03/20 00:47:15;;;;;;;;;;;8.50;44.40;;;;;;5064416;28;19962;-78
2022/03/20 00:49:42;;;;;;;;;;;8.40;44.80;;;;;;5064561;28;19968;-78
2022/03/20 00:52:10;;;;;;;;;;;8.30;44.80;;;;;;5069212;28;21050;-78
2022/03/20 00:54:37;;;;;;;;;;;8.30;45.10;;;;;;5059577;28;19974;-78
2022/03/20 00:57:04;;;;;;;;;;;8.30;45.40;;;;;;5060203;28;19975;-78
2022/03/20 00:59:30;;;;;;;;;;;8.20;45.10;;;;;;5064167;28;19929;-78
2022/03/20 01:01:57;;;;;;;;;;;8.10;45.20;;;;;;5067314;28;19935;-78
2022/03/20 01:04:25;;;;;;;;;;;8.10;45.10;;;;;;5069636;28;20332;-78
2022/03/20 01:06:55;;;;;;;;;;;8.00;45.70;;;;;;5059758;28;20451;-78
2022/03/20 01:09:22;;;;;;;;;;;7.80;46.20;;;;;;5059084;28;19924;-76
2022/03/20 01:11:50;;;;;;;;;;;7.70;46.60;;;;;;5071388;28;19924;-78
2022/03/20 01:14:17;;;;;;;;;;;7.70;46.50;;;;;;5059951;28;20810;-78
2022/03/20 01:16:44;;;;;;;;;;;7.60;46.70;;;;;;5063157;28;20358;-78
2022/03/20 01:19:11;;;;;;;;;;;7.50;47.10;;;;;;5071201;28;19982;-78
2022/03/20 01:21:38;;;;;;;;;;;7.50;47.60;;;;;;5065423;28;19964;-78
2022/03/20 01:24:05;;;;;;;;;;;7.40;48.20;;;;;;5068767;28;19994;-78
2022/03/20 01:26:32;;;;;;;;;;;7.30;48.30;;;;;;5059214;28;19956;-78
2022/03/20 01:28:59;;;;;;;;;;;7.20;48.90;;;;;;5066588;28;19928;-76
2022/03/20 01:31:28;;;;;;;;;;;7.20;49.20;;;;;;5079456;28;19956;-78
2022/03/20 01:33:55;;;;;;;;;;;7.00;49.80;;;;;;5071832;28;19959;-78
2022/03/20 01:36:22;;;;;;;;;;;6.90;50.30;;;;;;5070208;28;19963;-77
2022/03/20 01:38:48;;;;;;;;;;;6.80;50.50;;;;;;5059887;28;19925;-76
2022/03/20 01:41:15;;;;;;;;;;;6.70;50.90;;;;;;5068104;28;19967;-78
2022/03/20 01:43:51;;;;;;;;;;;6.60;50.90;;;;;;5067604;28;20712;-78
2022/03/20 01:46:18;;;;;;;;;;;6.50;51.40;;;;;;5083446;28;19974;-78
2022/03/20 01:48:45;;;;;;;;;;;6.40;51.20;;;;;;5076664;28;19936;-76
2022/03/20 01:51:13;;;;;;;;;;;6.40;51.00;;;;;;5074823;28;19924;-78
2022/03/20 01:53:40;;;;;;;;;;;6.40;51.50;;;;;;5066300;28;19956;-76
2022/03/20 01:56:07;;;;;;;;;;;6.40;51.50;;;;;;5061127;28;20015;-76
2022/03/20 01:58:34;;;;;;;;;;;6.40;51.50;;;;;;5077604;28;19929;-77
2022/03/20 02:01:02;;;;;;;;;;;6.30;51.80;;;;;;5077508;28;19928;-77
2022/03/20 02:03:30;;;;;;;;;;;6.20;52.00;;;;;;5066629;28;19935;-77
2022/03/20 02:05:57;;;;;;;;;;;6.10;52.50;;;;;;5072955;28;19975;-77
2022/03/20 02:08:27;;;;;;;;;;;6.10;52.90;;;;;;5068700;28;19979;-78
2022/03/20 02:10:54;;;;;;;;;;;6.00;53.10;;;;;;5057304;28;20296;-78
2022/03/20 02:13:22;;;;;;;;;;;6.00;52.70;;;;;;5069073;28;19975;-78
2022/03/20 02:15:49;;;;;;;;;;;6.00;52.70;;;;;;5068374;28;19925;-78
2022/03/20 02:18:17;;;;;;;;;;;5.90;53.20;;;;;;5064165;28;19929;-76
2022/03/20 02:20:48;;;;;;;;;;;5.90;53.10;;;;;;5065202;28;19924;-77
2022/03/20 02:23:15;;;;;;;;;;;5.80;53.60;;;;;;5069198;28;19960;-78
2022/03/20 02:25:50;;;;;;;;;;;5.70;53.90;;;;;;5059135;28;19928;-78
2022/03/20 02:28:17;;;;;;;;;;;5.60;54.10;;;;;;5057325;28;19994;-76
2022/03/20 02:30:46;;;;;;;;;;;5.60;54.20;;;;;;5082160;28;19924;-77
2022/03/20 02:33:13;;;;;;;;;;;5.50;54.10;;;;;;5072949;28;19929;-76
2022/03/20 02:35:40;;;;;;;;;;;5.50;54.20;;;;;;5070341;28;19925;-75
2022/03/20 02:38:10;;;;;;;;;;;5.40;55.00;;;;;;5064777;28;20401;-78
2022/03/20 02:40:37;;;;;;;;;;;5.40;54.90;;;;;;5071884;28;19925;-78
2022/03/20 02:43:05;;;;;;;;;;;5.30;55.30;;;;;;5074158;28;20001;-76
2022/03/20 02:45:32;;;;;;;;;;;5.20;55.20;;;;;;5078396;28;19924;-75
2022/03/20 02:48:00;;;;;;;;;;;5.10;56.30;;;;;;5078959;28;19924;-77
2022/03/20 02:50:28;;;;;;;;;;;5.00;56.60;;;;;;5064079;28;19932;-76
2022/03/20 02:52:59;;;;;;;;;;;4.90;58.20;;;;;;5063866;28;19977;-77
2022/03/20 02:55:26;;;;;;;;;;;4.90;57.30;;;;;;5074662;28;19951;-77
2022/03/20 02:57:53;;;;;;;;;;;4.80;57.40;;;;;;5052553;28;19964;-78
2022/03/20 03:00:22;;;;;;;;;;;4.70;57.50;;;;;;5054320;28;19925;-77
2022/03/20 03:02:50;;;;;;;;;;;4.50;58.10;;;;;;5076596;28;20529;-76
2022/03/20 03:05:18;;;;;;;;;;;4.50;58.10;;;;;;5074000;28;20155;-75
2022/03/20 03:13:18;;;;;;;;;;;4.30;58.50;;;;;;5056511;28;19969;-78
2022/03/20 03:15:44;;;;;;;;;;;4.30;58.70;;;;;;5060520;28;20006;-76
2022/03/20 03:18:11;;;;;;;;;;;4.30;59.50;;;;;;5078913;28;20411;-78
2022/03/20 03:20:38;;;;;;;;;;;4.20;59.80;;;;;;5074674;28;19946;-78
2022/03/20 03:23:05;;;;;;;;;;;4.20;59.80;;;;;;5060358;28;19925;-77
2022/03/20 03:25:32;;;;;;;;;;;4.10;60.50;;;;;;5058506;28;19925;-78
2022/03/20 03:27:59;;;;;;;;;;;4.10;60.30;;;;;;5071898;28;19978;-77
2022/03/20 03:30:26;;;;;;;;;;;4.10;60.00;;;;;;5050876;28;19925;-78
2022/03/20 03:32:53;;;;;;;;;;;4.10;59.90;;;;;;5073720;28;20311;-78
2022/03/20 03:38:05;;;;;;;;;;;4.10;59.80;;;;;;5076945;28;19966;-77
2022/03/20 03:40:32;;;;;;;;;;;4.10;59.80;;;;;;5063838;28;19978;-77
2022/03/20 03:42:59;;;;;;;;;;;4.00;60.00;;;;;;5072158;28;19928;-78
2022/03/20 03:45:26;;;;;;;;;;;4.00;60.00;;;;;;5063971;28;19994;-78
2022/03/20 03:47:53;;;;;;;;;;;4.00;60.40;;;;;;5073736;28;19925;-78
2022/03/20 03:50:20;;;;;;;;;;;3.90;60.60;;;;;;5070473;28;19939;-77
2022/03/20 03:52:47;;;;;;;;;;;3.80;62.30;;;;;;5076459;28;19950;-76
2022/03/20 03:55:14;;;;;;;;;;;3.60;61.40;;;;;;5057464;28;19974;-77
2022/03/20 03:57:48;;;;;;;;;;;3.60;61.90;;;;;;5061290;28;19947;-77
2022/03/20 04:00:16;;;;;;;;;;;3.50;61.70;;;;;;5072314;28;19928;-76
2022/03/20 04:02:43;;;;;;;;;;;3.50;62.70;;;;;;5074007;28;19932;-77
2022/03/20 04:05:10;;;;;;;;;;;3.40;62.10;;;;;;5064700;28;19928;-77
2022/03/20 04:07:37;;;;;;;;;;;3.40;62.50;;;;;;5070303;28;19932;-77
2022/03/20 04:10:07;;;;;;;;;;;3.40;63.00;;;;;;5065426;28;19982;-78
2022/03/20 04:12:36;;;;;;;;;;;3.40;62.70;;;;;;5066959;28;20342;-78
2022/03/20 04:15:14;;;;;;;;;;;3.40;62.30;;;;;;5080652;28;19947;-76
2022/03/20 04:17:42;;;;;;;;;;;3.40;62.50;;;;;;5073046;28;19971;-77
2022/03/20 04:20:10;;;;;;;;;;;3.40;62.50;;;;;;5072822;28;19929;-78
2022/03/20 04:22:37;;;;;;;;;;;3.50;61.50;;;;;;5077281;28;19932;-77
2022/03/20 04:25:05;;;;;;;;;;;3.50;61.60;;;;;;5075692;28;19933;-77
2022/03/20 04:27:32;;;;;;;;;;;3.50;61.60;;;;;;5080445;28;19963;-76
2022/03/20 04:29:59;;;;;;;;;;;3.50;61.30;;;;;;5079109;28;19935;-78
2022/03/20 04:32:26;;;;;;;;;;;3.50;61.20;;;;;;5076376;28;19928;-77
2022/03/20 04:34:53;;;;;;;;;;;3.50;61.00;;;;;;5067068;28;19974;-77
2022/03/20 04:37:21;;;;;;;;;;;3.40;60.60;;;;;;5059993;28;19928;-77
2022/03/20 04:39:49;;;;;;;;;;;3.40;61.10;;;;;;5071663;28;19916;-76
2022/03/20 04:42:15;;;;;;;;;;;3.40;60.80;;;;;;5057374;28;20423;-77
2022/03/20 04:44:43;;;;;;;;;;;3.40;60.60;;;;;;5067931;28;19944;-76
2022/03/20 04:58:31;;;;;;;;;;;3.20;61.90;;;;;;5083572;28;19925;-76
2022/03/20 05:00:58;;;;;;;;;;;3.20;61.80;;;;;;5079264;28;20404;-76
2022/03/20 05:03:25;;;;;;;;;;;3.20;61.50;;;;;;5079695;28;19931;-77
2022/03/20 05:05:52;;;;;;;;;;;3.10;62.10;;;;;;5076232;28;19925;-77
2022/03/20 05:08:19;;;;;;;;;;;3.10;62.40;;;;;;5077504;28;19929;-78
2022/03/20 05:13:31;;;;;;;;;;;3.10;62.40;;;;;;5069583;28;19924;-77
2022/03/20 05:15:58;;;;;;;;;;;3.00;62.80;;;;;;5077437;28;20416;-76
2022/03/20 05:18:25;;;;;;;;;;;3.00;63.30;;;;;;5076560;28;19925;-76
2022/03/20 05:20:52;;;;;;;;;;;3.00;63.20;;;;;;5082610;28;20403;-76
2022/03/20 05:23:20;;;;;;;;;;;3.00;63.20;;;;;;5065356;28;19929;-77
2022/03/20 05:25:47;;;;;;;;;;;3.00;63.10;;;;;;5066018;28;19924;-77
2022/03/20 05:28:15;;;;;;;;;;;3.00;63.20;;;;;;5069938;28;19933;-77
2022/03/20 05:30:43;;;;;;;;;;;3.00;63.00;;;;;;5060433;28;20411;-77
2022/03/20 05:33:14;;;;;;;;;;;3.00;62.80;;;;;;5070813;28;19929;-78
2022/03/20 05:35:41;;;;;;;;;;;3.00;62.60;;;;;;5063663;28;19925;-76
2022/03/20 05:38:08;;;;;;;;;;;3.00;62.30;;;;;;5072129;28;19924;-77
2022/03/20 05:40:39;;;;;;;;;;;3.00;62.30;;;;;;5071416;28;19925;-77
2022/03/20 05:43:08;;;;;;;;;;;3.00;62.40;;;;;;5068744;28;19982;-76
2022/03/20 05:45:39;;;;;;;;;;;2.90;62.40;;;;;;5083853;28;19928;-77
2022/03/20 05:48:08;;;;;;;;;;;2.90;62.70;;;;;;5070013;28;20096;-78
2022/03/20 05:50:35;;;;;;;;;;;2.90;63.10;;;;;;5087275;28;19979;-78
2022/03/20 05:53:02;;;;;;;;;;;2.90;63.20;;;;;;5065378;28;19925;-78
2022/03/20 05:58:24;;;;;;;;;;;2.90;62.70;;;;;;5065052;28;19951;-76
2022/03/20 06:00:51;;;;;;;;;;;2.80;63.00;;;;;;5072185;28;20400;-78
2022/03/20 06:03:19;;;;;;;;;;;2.80;63.80;;;;;;5070456;28;19943;-76
2022/03/20 06:05:47;;;;;;;;;;;2.70;63.60;;;;;;5081722;28;20404;-77
2022/03/20 06:08:13;;;;;;;;;;;2.70;63.00;;;;;;5065842;28;19974;-76
2022/03/20 06:10:40;;;;;;;;;;;2.70;62.50;;;;;;5072822;28;19947;-78
2022/03/20 06:13:08;;;;;;;;;;;2.80;63.00;;;;;;5055819;28;19959;-77
2022/03/20 06:15:35;;;;;;;;;;;2.80;63.00;;;;;;5075039;28;19924;-78
2022/03/20 06:18:05;;;;;;;;;;;2.80;63.20;;;;;;5069942;28;19955;-77
2022/03/20 06:20:35;;;;;;;;;;;3.00;62.30;;;;;;5072880;28;19925;-76
2022/03/20 06:23:02;;;;;;;;;;;3.00;62.20;;;;;;5075131;28;19928;-78
2022/03/20 06:25:29;;;;;;;;;;;3.00;62.80;;;;;;5070427;28;19928;-78
2022/03/20 06:28:00;;;;;;;;;;;3.10;61.20;;;;;;5078988;28;19947;-76
2022/03/20 06:30:32;;;;;;;;;;;3.20;60.60;;;;;;5073813;28;19935;-75
2022/03/20 06:32:59;;;;;;;;;;;3.30;60.90;;;;;;5066137;28;19925;-77
2022/03/20 06:35:25;;;;;;;;;;;3.40;60.30;;;;;;5062119;28;19943;-75
2022/03/20 06:37:53;;;;;;;;;;;3.40;60.30;;;;;;5072548;28;19928;-77
2022/03/20 06:40:21;;;;;;;;;;;3.50;60.60;;;;;;5074110;28;20024;-77
2022/03/20 06:42:47;;;;;;;;;;;3.60;61.50;;;;;;5071916;28;19978;-76
2022/03/20 06:45:14;;;;;;;;;;;3.60;60.60;;;;;;5068212;28;19940;-77
2022/03/20 06:47:42;;;;;;;;;;;3.60;60.60;;;;;;5076516;28;19908;-78
2022/03/20 06:50:10;;;;;;;;;;;3.70;60.80;;;;;;5069752;28;19928;-77
2022/03/20 06:52:40;;;;;;;;;;;3.70;60.80;;;;;;5063428;28;19950;-77
2022/03/20 06:55:08;;;;;;;;;;;3.80;60.70;;;;;;5062746;28;19929;-78
2022/03/20 06:57:35;;;;;;;;;;;3.90;60.30;;;;;;5063925;28;19976;-77
2022/03/20 07:00:04;;;;;;;;;;;4.00;59.60;;;;;;5058808;28;20392;-78
2022/03/20 07:02:30;;;;;;;;;;;4.20;59.20;;;;;;5081673;28;20035;-78
2022/03/20 07:04:57;;;;;;;;;;;4.50;58.20;;;;;;5065522;28;20317;-79
2022/03/20 07:07:24;;;;;;;;;;;4.60;57.50;;;;;;5066758;28;19937;-77
2022/03/20 07:09:51;;;;;;;;;;;4.80;55.90;;;;;;5089957;28;19978;-77
2022/03/20 07:12:18;;;;;;;;;;;5.00;54.40;;;;;;5068477;28;20414;-77
2022/03/20 07:14:45;;;;;;;;;;;5.20;53.70;;;;;;5076380;28;19928;-79
2022/03/20 07:17:12;;;;;;;;;;;5.30;54.00;;;;;;5071114;28;19924;-76
2022/03/20 07:19:42;;;;;;;;;;;5.50;54.40;;;;;;5075727;28;19928;-78
2022/03/20 07:22:10;;;;;;;;;;;5.60;54.40;;;;;;5074122;28;20405;-78
2022/03/20 07:24:41;;;;;;;;;;;5.90;53.70;;;;;;5058633;28;19978;-79
2022/03/20 07:29:54;;;;;;;;;;;6.30;53.10;;;;;;5069575;28;19928;-78
2022/03/20 07:32:21;;;;;;;;;;;6.60;52.10;;;;;;5073773;28;19924;-77
2022/03/20 07:34:48;;;;;;;;;;;7.00;50.00;;;;;;5066166;28;19928;-77
2022/03/20 07:37:16;;;;;;;;;;;7.20;49.30;;;;;;5055394;28;20380;-78
2022/03/20 07:39:47;;;;;;;;;;;7.60;48.00;;;;;;5069850;28;19924;-79
2022/03/20 07:42:14;;;;;;;;;;;7.80;46.60;;;;;;5071809;28;19924;-77
2022/03/20 07:44:44;;;;;;;;;;;8.10;44.30;;;;;;5081290;28;19925;-78
2022/03/20 07:47:21;;;;;;;;;;;8.30;44.10;;;;;;5054027;28;19924;-78
2022/03/20 07:49:48;;;;;;;;;;;8.50;44.00;;;;;;5065205;28;20289;-79
2022/03/20 07:52:16;;;;;;;;;;;8.60;42.80;;;;;;5061598;28;19926;-77
2022/03/20 07:54:45;;;;;;;;;;;8.90;41.90;;;;;;5058865;28;19971;-78
2022/03/20 07:57:13;;;;;;;;;;;9.00;41.50;;;;;;5069512;28;19932;-78
2022/03/20 07:59:41;;;;;;;;;;;9.10;41.70;;;;;;5073476;28;20207;-78
2022/03/20 08:02:07;;;;;;;;;;;9.30;40.40;;;;;;5067585;28;20394;-78
2022/03/20 08:04:35;;;;;;;;;;;9.40;39.40;;;;;;5070879;28;19924;-79
2022/03/20 08:07:02;;;;;;;;;;;9.60;38.50;;;;;;5071859;28;19932;-78
2022/03/20 08:09:29;;;;;;;;;;;9.80;39.30;;;;;;5077471;28;19989;-78
2022/03/20 08:11:56;;;;;;;;;;;9.90;37.40;;;;;;5070016;28;19947;-78
2022/03/20 08:14:26;;;;;;;;;;;10.10;37.20;;;;;;5068253;28;19925;-78
2022/03/20 08:16:53;;;;;;;;;;;10.30;37.20;;;;;;5067972;28;19925;-77
2022/03/20 08:19:23;;;;;;;;;;;10.30;35.00;;;;;;5077282;28;19990;-78
2022/03/20 08:21:50;;;;;;;;;;;10.40;35.90;;;;;;5065425;28;19935;-76
2022/03/20 08:24:18;;;;;;;;;;;10.60;35.80;;;;;;5073134;28;19947;-76
2022/03/20 08:26:45;;;;;;;;;;;10.70;34.70;;;;;;5073196;28;19924;-78
2022/03/20 08:29:13;;;;;;;;;;;10.80;34.90;;;;;;5068208;28;20392;-77
2022/03/20 08:31:44;;;;;;;;;;;10.70;33.30;;;;;;5068464;28;19960;-77
2022/03/20 08:34:11;;;;;;;;;;;10.80;33.40;;;;;;5064140;28;19929;-78
2022/03/20 08:36:39;;;;;;;;;;;11.00;34.40;;;;;;5062294;28;19925;-76
2022/03/20 08:39:06;;;;;;;;;;;11.10;33.30;;;;;;5073542;28;20347;-78
2022/03/20 08:41:33;;;;;;;;;;;11.00;34.20;;;;;;5075860;28;19925;-79
2022/03/20 08:44:01;;;;;;;;;;;11.10;33.60;;;;;;5070653;28;19929;-78
2022/03/20 08:46:28;;;;;;;;;;;11.20;33.40;;;;;;5063576;28;19929;-78
2022/03/20 08:48:54;;;;;;;;;;;11.20;33.40;;;;;;5070142;28;19974;-79
2022/03/20 08:51:21;;;;;;;;;;;11.20;33.00;;;;;;5067901;28;20046;-79
2022/03/20 08:53:48;;;;;;;;;;;11.20;33.20;;;;;;5076279;28;19955;-78
2022/03/20 08:56:15;;;;;;;;;;;11.30;34.40;;;;;;5063055;28;19925;-78
2022/03/20 08:58:43;;;;;;;;;;;11.40;33.50;;;;;;5060161;28;19928;-77
2022/03/20 09:01:11;;;;;;;;;;;11.60;33.70;;;;;;5078386;28;19946;-78
2022/03/20 09:03:38;;;;;;;;;;;11.60;34.00;;;;;;5079670;28;19935;-78
2022/03/20 09:06:05;;;;;;;;;;;11.60;32.70;;;;;;5066913;28;19928;-79
2022/03/20 09:08:34;;;;;;;;;;;11.60;33.00;;;;;;5081252;28;19925;-77
2022/03/20 09:11:01;;;;;;;;;;;11.60;32.50;;;;;;5075315;28;20002;-78
2022/03/20 09:13:27;;;;;;;;;;;11.50;31.80;;;;;;5072574;28;20392;-78
2022/03/20 09:18:59;;;;;;;;;;;11.50;34.00;;;;;;5073233;28;20238;-79
2022/03/20 09:21:33;;;;;;;;;;;11.70;33.90;;;;;;5073030;28;19909;-77
2022/03/20 09:24:00;;;;;;;;;;;11.80;33.40;;;;;;5067015;28;19932;-79
2022/03/20 09:26:27;;;;;;;;;;;11.90;34.20;;;;;;5066574;28;19925;-78
2022/03/20 09:28:54;;;;;;;;;;;11.90;31.60;;;;;;5064140;28;19929;-79
2022/03/20 09:31:21;;;;;;;;;;;12.00;33.10;;;;;;5065530;28;19974;-78
2022/03/20 09:33:49;;;;;;;;;;;12.20;33.30;;;;;;5059878;28;19986;-79
2022/03/20 09:36:16;;;;;;;;;;;12.30;33.00;;;;;;5062135;28;19932;-77
2022/03/20 09:38:43;;;;;;;;;;;12.50;32.40;;;;;;5065591;28;20388;-79
2022/03/20 09:41:11;;;;;;;;;;;12.50;32.10;;;;;;5060602;28;19929;-79
2022/03/20 09:43:40;;;;;;;;;;;12.50;31.50;;;;;;5059525;28;19928;-79
2022/03/20 09:46:13;;;;;;;;;;;12.60;32.30;;;;;;5063535;28;19924;-78
2022/03/20 09:48:41;;;;;;;;;;;12.70;32.30;;;;;;5068132;28;19944;-78
2022/03/20 09:51:09;;;;;;;;;;;12.40;30.80;;;;;;5064944;28;19932;-77
2022/03/20 09:53:36;;;;;;;;;;;12.50;31.40;;;;;;5063685;28;19925;-79
2022/03/20 09:56:05;;;;;;;;;;;12.60;32.40;;;;;;5073343;28;19924;-79
2022/03/20 09:58:32;;;;;;;;;;;12.60;30.80;;;;;;5075918;28;19964;-79
2022/03/20 10:01:01;;;;;;;;;;;12.60;31.50;;;;;;5062745;28;19933;-79
2022/03/20 10:03:29;;;;;;;;;;;12.70;32.40;;;;;;5061951;28;19936;-80
2022/03/20 10:06:02;;;;;;;;;;;12.80;31.70;;;;;;5064110;28;19924;-76
2022/03/20 10:08:28;;;;;;;;;;;12.90;32.10;;;;;;5081807;28;19916;-77
2022/03/20 10:11:11;;;;;;;;;;;13.00;31.50;;;;;;5057816;28;20353;-80
2022/03/20 10:13:38;;;;;;;;;;;12.80;30.30;;;;;;5064712;28;19978;-80
2022/03/20 10:16:16;;;;;;;;;;;12.90;33.20;;;;;;5045145;28;20385;-80
2022/03/20 10:18:42;;;;;;;;;;;13.00;30.80;;;;;;5072062;28;19977;-78
2022/03/20 10:21:11;;;;;;;;;;;13.00;31.00;;;;;;5069358;28;19990;-77
2022/03/20 10:23:41;;;;;;;;;;;13.10;31.50;;;;;;5069205;28;20579;-77
2022/03/20 10:26:09;;;;;;;;;;;13.20;32.70;;;;;;5070386;28;19925;-77
2022/03/20 10:28:43;;;;;;;;;;;13.10;30.30;;;;;;5063245;28;19944;-77
2022/03/20 10:31:11;;;;;;;;;;;13.00;30.80;;;;;;5074627;28;19924;-80
2022/03/20 10:33:41;;;;;;;;;;;13.10;31.20;;;;;;5075891;28;19929;-79
2022/03/20 10:36:08;;;;;;;;;;;13.30;32.60;;;;;;5071672;28;20411;-81
2022/03/20 10:38:38;;;;;;;;;;;13.50;32.10;;;;;;5065500;28;19929;-79
2022/03/20 10:41:25;;;;;;;;;;;13.60;31.80;;;;;;5072431;28;19928;-80
2022/03/20 10:43:53;;;;;;;;;;;13.70;31.70;;;;;;5086031;28;19928;-80
2022/03/20 10:46:21;;;;;;;;;;;13.90;32.00;;;;;;5080972;28;19932;-77
2022/03/20 10:48:50;;;;;;;;;;;13.90;31.90;;;;;;5070981;28;20286;-78
2022/03/20 10:51:37;;;;;;;;;;;14.00;31.70;;;;;;5075982;28;19939;-77
2022/03/20 10:54:08;;;;;;;;;;;14.00;30.80;;;;;;5061441;28;19928;-78
2022/03/20 10:56:37;;;;;;;;;;;14.00;31.30;;;;;;5076868;28;19936;-78
2022/03/20 10:59:14;;;;;;;;;;;14.00;30.80;;;;;;5074371;28;19909;-79
2022/03/20 11:01:44;;;;;;;;;;;14.00;30.90;;;;;;5077513;28;19925;-77
2022/03/20 11:04:11;;;;;;;;;;;13.90;30.00;;;;;;5072753;28;19960;-79
2022/03/20 11:06:46;;;;;;;;;;;13.90;29.60;;;;;;5075044;28;19928;-78
2022/03/20 11:09:13;;;;;;;;;;;13.80;30.60;;;;;;5074610;28;20421;-80
2022/03/20 11:11:40;;;;;;;;;;;14.00;31.00;;;;;;5076664;28;20004;-77
2022/03/20 11:14:08;;;;;;;;;;;14.10;31.50;;;;;;5060243;28;19929;-76
2022/03/20 11:16:38;;;;;;;;;;;14.10;30.30;;;;;;5067509;28;19955;-80
2022/03/20 11:19:08;;;;;;;;;;;14.20;30.60;;;;;;5059908;28;19932;-79
2022/03/20 11:21:36;;;;;;;;;;;14.30;31.60;;;;;;5071034;28;20144;-80
2022/03/20 11:24:04;;;;;;;;;;;14.40;31.50;;;;;;5065455;28;19960;-79
2022/03/20 11:26:32;;;;;;;;;;;14.40;30.10;;;;;;5060925;28;20355;-79
2022/03/20 11:29:04;;;;;;;;;;;14.50;29.50;;;;;;5068911;28;20029;-80
2022/03/20 11:31:35;;;;;;;;;;;14.60;29.60;;;;;;5068552;28;19929;-77
2022/03/20 11:34:06;;;;;;;;;;;14.60;28.10;;;;;;5066844;28;19928;-80
2022/03/20 11:36:53;;;;;;;;;;;14.70;29.00;;;;;;5072744;28;20319;-78
2022/03/20 11:39:19;;;;;;;;;;;14.90;28.40;;;;;;5087854;28;20006;-77
2022/03/20 11:42:06;;;;;;;;;;;14.70;27.70;;;;;;5065628;28;19924;-78
2022/03/20 11:44:34;;;;;;;;;;;14.50;28.10;;;;;;5074193;28;19986;-76
2022/03/20 11:47:16;;;;;;;;;;;14.70;29.70;;;;;;5060320;28;19994;-80
2022/03/20 11:49:43;;;;;;;;;;;14.90;29.50;;;;;;5061474;28;19940;-79
2022/03/20 11:52:15;;;;;;;;;;;15.00;30.00;;;;;;5061663;28;19932;-78
2022/03/20 11:54:42;;;;;;;;;;;15.00;29.20;;;;;;5056862;28;19925;-79
2022/03/20 11:57:24;;;;;;;;;;;15.00;29.00;;;;;;5059610;28;20380;-77
2022/03/20 11:59:54;;;;;;;;;;;14.90;28.10;;;;;;5064792;28;19994;-78
2022/03/20 12:02:38;;;;;;;;;;;15.00;28.50;;;;;;5059183;28;19957;-79
2022/03/20 12:05:21;;;;;;;;;;;15.00;28.00;;;;;;5060059;28;19987;-79
2022/03/20 12:08:06;;;;;;;;;;;15.10;28.30;;;;;;5078357;28;20305;-78
2022/03/20 12:10:45;;;;;;;;;;;15.10;28.10;;;;;;5076293;28;19924;-82
2022/03/20 12:13:44;;;;;;;;;;;15.10;28.70;;;;;;5056701;28;20588;-79
2022/03/20 12:16:11;;;;;;;;;;;15.00;29.10;;;;;;5018905;28;20506;-78
2022/03/20 12:18:57;;;;;;;;;;;15.20;29.80;;;;;;5064446;28;19928;-77
2022/03/20 12:21:42;;;;;;;;;;;15.10;28.30;;;;;;5075522;28;20044;-81
2022/03/20 12:24:27;;;;;;;;;;;14.90;28.80;;;;;;5080321;28;20456;-77
2022/03/20 12:26:56;;;;;;;;;;;14.70;28.20;;;;;;5084312;28;19935;-81
2022/03/20 12:29:27;;;;;;;;;;;14.70;28.90;;;;;;5074088;28;19932;-79
2022/03/20 12:31:58;;;;;;;;;;;15.00;29.60;;;;;;5077623;28;19935;-80
2022/03/20 12:34:25;;;;;;;;;;;15.10;29.10;;;;;;5057900;28;19951;-80
2022/03/20 12:36:52;;;;;;;;;;;15.20;29.00;;;;;;5062738;28;19924;-78
2022/03/20 12:39:37;;;;;;;;;;;15.40;28.70;;;;;;5076098;28;19939;-80
2022/03/20 12:42:14;;;;;;;;;;;15.20;28.10;;;;;;5065819;28;19964;-79
2022/03/20 12:44:45;;;;;;;;;;;15.10;28.30;;;;;;5061948;28;19928;-78
2022/03/20 12:47:11;;;;;;;;;;;15.20;29.00;;;;;;5068788;28;20396;-80
2022/03/20 12:49:41;;;;;;;;;;;15.40;28.80;;;;;;5066152;28;19978;-80
2022/03/20 12:52:08;;;;;;;;;;;15.20;28.00;;;;;;5071543;28;19925;-80
2022/03/20 12:54:35;;;;;;;;;;;15.10;28.90;;;;;;5082737;28;19928;-80
2022/03/20 12:57:04;;;;;;;;;;;14.80;28.50;;;;;;5079245;28;19925;-79
2022/03/20 12:59:31;;;;;;;;;;;14.80;28.40;;;;;;5073743;28;19936;-81
2022/03/20 13:02:03;;;;;;;;;;;15.00;29.40;;;;;;5070420;28;19946;-81
2022/03/20 13:04:30;;;;;;;;;;;15.10;27.70;;;;;;5068505;28;19939;-78
2022/03/20 13:06:57;;;;;;;;;;;15.40;28.70;;;;;;5076203;28;19975;-81
2022/03/20 13:09:23;;;;;;;;;;;15.70;28.70;;;;;;5084930;28;20465;-81
2022/03/20 13:11:58;;;;;;;;;;;15.80;28.60;;;;;;5060028;28;19929;-81
2022/03/20 13:14:25;;;;;;;;;;;16.00;28.50;;;;;;5069799;28;19982;-78
2022/03/20 13:16:56;;;;;;;;;;;15.60;27.90;;;;;;5061832;28;20385;-81
2022/03/20 13:19:26;;;;;;;;;;;15.30;28.20;;;;;;5064936;28;19928;-78
2022/03/20 13:21:53;;;;;;;;;;;15.20;28.90;;;;;;5073140;28;19925;-76
2022/03/20 13:24:30;;;;;;;;;;;15.20;28.80;;;;;;5067152;28;19989;-75
2022/03/20 13:27:01;;;;;;;;;;;15.50;29.80;;;;;;5076061;28;20300;-81
2022/03/20 13:29:28;;;;;;;;;;;15.80;28.10;;;;;;5080310;28;20450;-81
2022/03/20 13:32:13;;;;;;;;;;;16.00;28.90;;;;;;5075830;28;19978;-76
2022/03/20 13:34:44;;;;;;;;;;;16.10;27.70;;;;;;5074872;28;19939;-79
2022/03/20 13:37:12;;;;;;;;;;;16.20;27.00;;;;;;5066812;28;20297;-76
2022/03/20 13:39:46;;;;;;;;;;;16.00;27.50;;;;;;5079245;28;19929;-78
2022/03/20 13:42:17;;;;;;;;;;;16.10;28.20;;;;;;5065810;28;19976;-80
2022/03/20 13:44:45;;;;;;;;;;;16.20;27.70;;;;;;5078288;28;20667;-78
2022/03/20 13:47:12;;;;;;;;;;;16.40;28.20;;;;;;5065134;28;20283;-76
2022/03/20 13:49:39;;;;;;;;;;;15.70;26.90;;;;;;5076002;28;19924;-77
2022/03/20 13:52:07;;;;;;;;;;;15.40;28.30;;;;;;5069218;28;20445;-79
2022/03/20 13:54:39;;;;;;;;;;;15.30;28.60;;;;;;5057514;28;20367;-78
2022/03/20 13:57:07;;;;;;;;;;;15.40;28.10;;;;;;5079007;28;20402;-78
2022/03/20 14:00:07;;;;;;;;;;;15.30;28.70;;;;;;5072633;28;19925;-79
2022/03/20 14:02:41;;;;;;;;;;;15.50;28.70;;;;;;5028434;28;19925;-77
2022/03/20 14:05:10;;;;;;;;;;;15.90;28.90;;;;;;5064538;28;19971;-77
2022/03/20 14:07:37;;;;;;;;;;;16.30;28.00;;;;;;5057419;28;19925;-77
2022/03/20 14:10:16;;;;;;;;;;;16.50;27.70;;;;;;5066743;28;19940;-79
2022/03/20 14:12:43;;;;;;;;;;;16.40;27.10;;;;;;5071276;28;19924;-77
2022/03/20 14:15:11;;;;;;;;;;;16.00;28.10;;;;;;5071789;28;20378;-77
2022/03/20 14:17:44;;;;;;;;;;;15.90;28.10;;;;;;5070251;28;20300;-76
2022/03/20 14:20:10;;;;;;;;;;;16.20;28.40;;;;;;5077166;28;19954;-77
2022/03/20 14:22:42;;;;;;;;;;;16.40;28.00;;;;;;5065756;28;19932;-81
2022/03/20 14:25:09;;;;;;;;;;;16.20;28.30;;;;;;5070134;28;20392;-76
2022/03/20 14:27:36;;;;;;;;;;;16.30;27.40;;;;;;5067489;28;19932;-79
2022/03/20 14:41:30;;;;;;;;;;;16.40;27.90;;;;;;5069461;28;19929;-77
2022/03/20 14:44:06;;;;;;;;;;;16.60;27.80;;;;;;5079649;28;19925;-80
2022/03/20 14:46:33;;;;;;;;;;;16.60;27.30;;;;;;5073583;28;19954;-79
2022/03/20 14:49:01;;;;;;;;;;;16.20;26.90;;;;;;5077720;28;19924;-77
2022/03/20 14:51:28;;;;;;;;;;;15.90;27.80;;;;;;5072541;28;19979;-76
2022/03/20 14:53:54;;;;;;;;;;;15.90;28.20;;;;;;5064293;28;20007;-79
2022/03/20 14:56:21;;;;;;;;;;;16.00;28.30;;;;;;5071076;28;19924;-81
2022/03/20 14:58:49;;;;;;;;;;;16.10;28.80;;;;;;5058360;28;19931;-76
2022/03/20 15:01:19;;;;;;;;;;;16.10;28.40;;;;;;5063614;28;19925;-81
2022/03/20 15:03:47;;;;;;;;;;;15.90;28.00;;;;;;5079260;28;19924;-79
2022/03/20 15:06:14;;;;;;;;;;;15.60;28.10;;;;;;5065106;28;19979;-76
2022/03/20 15:11:30;;;;;;;;;;;15.70;28.90;;;;;;5066587;28;19940;-77
2022/03/20 15:13:58;;;;;;;;;;;15.80;28.60;;;;;;5066442;28;19932;-78
2022/03/20 15:16:26;;;;;;;;;;;15.80;28.30;;;;;;5066726;28;19928;-77
2022/03/20 15:18:54;;;;;;;;;;;15.70;28.10;;;;;;5062000;28;19978;-80